Time;durP1;ratioP1;P1;durP2;ratioP2;P2;SDS_P1;SDS_P2;PMS_P1;PMS_P2;Temp;Humidity;BMP_temperature;BMP_pressure;BME280_temperature;BME280_humidity;BME280_pressure;Samples;Min_cycle;Max_cycle;Signal;HPM_P1;HPM_P2
2023/08/16 00:01:57;;;;;;;12.80;9.97;;;21.40;99.90;;;21.87;66.48;95083.88;5088775;28;20467;-57
2023/08/16 00:04:25;;;;;;;13.90;9.30;;;21.40;99.90;;;21.81;66.14;95080.16;5090415;28;20466;-58
2023/08/16 00:06:52;;;;;;;12.50;9.50;;;21.30;99.90;;;21.77;66.39;95073.59;5095000;28;20453;-56
2023/08/16 00:09:20;;;;;;;22.57;9.83;;;21.30;99.90;;;21.74;66.41;95077.50;5093070;28;20556;-58
2023/08/16 00:11:49;;;;;;;11.43;9.23;;;21.20;99.90;;;21.72;66.35;95079.56;5096464;28;20494;-58
2023/08/16 00:14:16;;;;;;;11.23;8.70;;;21.20;99.90;;;21.71;66.40;95079.75;5094385;28;21041;-58
2023/08/16 00:16:44;;;;;;;11.00;9.90;;;21.30;99.90;;;21.69;66.68;95079.13;5092947;28;20484;-59
2023/08/16 00:19:11;;;;;;;14.37;9.70;;;21.20;99.90;;;21.69;66.87;95081.78;5093124;28;20492;-58
2023/08/16 00:21:39;;;;;;;11.30;9.37;;;21.20;99.90;;;21.70;66.54;95086.94;5092222;28;20974;-58
2023/08/16 00:24:07;;;;;;;11.20;9.13;;;21.20;99.90;;;21.70;66.76;95081.59;5090681;28;20477;-58
2023/08/16 00:26:34;;;;;;;12.50;9.57;;;21.20;99.90;;;21.70;66.58;95080.78;5089796;28;20454;-57
2023/08/16 00:29:03;;;;;;;10.90;8.70;;;21.20;99.90;;;21.69;66.69;95079.97;5091171;28;20584;-57
2023/08/16 00:31:30;;;;;;;11.20;9.50;;;21.20;99.90;;;21.67;66.78;95077.50;5089093;28;21011;-58
2023/08/16 00:33:58;;;;;;;10.53;9.20;;;21.20;99.90;;;21.67;66.70;95074.81;5092743;28;20497;-57
2023/08/16 00:36:25;;;;;;;19.33;9.70;;;21.20;99.90;;;21.66;66.51;95075.03;5094433;28;20460;-57
2023/08/16 00:38:52;;;;;;;13.53;9.30;;;21.20;99.90;;;21.64;66.72;95085.94;5092572;28;20859;-59
2023/08/16 00:41:20;;;;;;;17.77;10.30;;;21.20;99.90;;;21.63;66.66;95083.47;5100860;28;20551;-58
2023/08/16 00:43:47;;;;;;;12.93;10.27;;;21.10;99.90;;;21.60;66.89;95086.53;5093193;28;20481;-59
2023/08/16 00:46:17;;;;;;;12.93;9.83;;;21.10;99.90;;;21.58;66.52;95085.91;5092346;28;20561;-58
2023/08/16 00:48:45;;;;;;;11.40;10.00;;;21.10;99.90;;;21.53;66.99;95086.50;5088123;28;20550;-56
2023/08/16 00:51:12;;;;;;;11.97;10.87;;;21.10;99.90;;;21.49;67.11;95086.09;5090387;28;20897;-58
2023/08/16 00:53:40;;;;;;;14.13;10.33;;;21.00;99.90;;;21.46;67.48;95086.47;5089015;28;20501;-60
2023/08/16 00:56:08;;;;;;;14.70;9.73;;;21.00;99.90;;;21.43;67.10;95080.69;5096018;28;20465;-58
2023/08/16 00:58:35;;;;;;;13.70;11.10;;;21.00;99.90;;;21.39;67.21;95085.63;5096157;28;21092;-59
2023/08/16 01:01:02;;;;;;;15.50;10.67;;;20.90;99.90;;;21.38;67.33;95083.13;5088858;28;20454;-57
2023/08/16 01:03:31;;;;;;;11.83;10.63;;;20.90;99.90;;;21.36;67.67;95080.66;5092979;28;20488;-56
2023/08/16 01:05:58;;;;;;;11.83;10.50;;;20.90;99.90;;;21.36;67.07;95080.66;5091516;28;20454;-60
2023/08/16 01:08:26;;;;;;;13.03;10.93;;;20.90;99.90;;;21.36;67.43;95075.31;5093334;28;20475;-61
2023/08/16 01:10:58;;;;;;;15.07;9.80;;;20.90;99.90;;;21.35;67.36;95071.00;5095162;28;20450;-57
2023/08/16 01:13:28;;;;;;;12.13;10.90;;;20.90;99.90;;;21.37;67.45;95074.28;5094492;28;21013;-59
2023/08/16 01:15:56;;;;;;;12.80;10.20;;;20.90;99.90;;;21.36;67.37;95067.28;5097865;28;20667;-56
2023/08/16 01:18:24;;;;;;;16.27;10.80;;;20.90;99.90;;;21.33;67.45;95061.53;5090714;28;21005;-58
2023/08/16 01:20:53;;;;;;;12.33;10.60;;;20.90;99.90;;;21.31;67.84;95067.88;5087363;28;20450;-57
2023/08/16 01:23:28;;;;;;;15.50;10.37;;;20.90;99.90;;;21.30;67.52;95073.44;5095051;28;20585;-59
2023/08/16 01:26:07;;;;;;;13.90;10.20;;;20.80;99.90;;;21.28;67.63;95068.28;5090373;28;20502;-60
2023/08/16 01:28:36;;;;;;;14.23;10.67;;;20.80;99.90;;;21.28;67.65;95072.84;5092721;28;20473;-58
2023/08/16 01:31:04;;;;;;;13.10;10.40;;;20.80;99.90;;;21.27;67.66;95072.03;5093488;28;20462;-59
2023/08/16 01:33:32;;;;;;;14.70;11.47;;;20.80;99.90;;;21.26;67.58;95069.53;5089168;28;21025;-58
2023/08/16 01:35:59;;;;;;;11.53;10.33;;;20.80;99.90;;;21.25;67.89;95073.22;5093140;28;20536;-57
2023/08/16 01:38:26;;;;;;;12.80;10.23;;;20.80;99.90;;;21.25;67.69;95070.56;5091163;28;20551;-58
2023/08/16 01:40:58;;;;;;;12.77;11.10;;;20.80;99.90;;;21.23;67.91;95068.09;5093180;28;21316;-58
2023/08/16 01:43:25;;;;;;;12.30;11.00;;;20.80;99.90;;;21.21;67.93;95061.28;5087080;28;20557;-61
2023/08/16 01:45:54;;;;;;;13.50;9.43;;;20.80;99.90;;;21.17;67.92;95063.53;5092965;28;21461;-59
2023/08/16 01:48:22;;;;;;;10.50;9.37;;;20.70;99.90;;;21.17;68.32;95060.06;5093630;28;20462;-56
2023/08/16 01:50:50;;;;;;;12.10;10.30;;;20.70;99.90;;;21.14;67.84;95062.06;5093091;28;20499;-58
2023/08/16 01:53:18;;;;;;;13.30;11.00;;;20.70;99.90;;;21.12;67.97;95056.13;5092907;28;20833;-57
2023/08/16 01:55:45;;;;;;;11.70;10.50;;;20.70;99.90;;;21.11;68.28;95057.13;5093170;28;20495;-56
2023/08/16 01:58:12;;;;;;;15.27;11.57;;;20.70;99.90;;;21.07;68.15;95047.88;5089024;28;20535;-63
2023/08/16 02:00:40;;;;;;;11.40;10.30;;;20.60;99.90;;;21.03;68.03;95051.97;5089998;28;20464;-59
2023/08/16 02:03:08;;;;;;;13.07;10.97;;;20.60;99.90;;;20.98;68.05;95046.41;5090318;28;20480;-59
2023/08/16 02:05:36;;;;;;;12.67;11.37;;;20.50;99.90;;;20.93;68.26;95048.88;5092368;28;20550;-58
2023/08/16 02:08:04;;;;;;;15.00;11.50;;;20.50;99.90;;;20.88;68.32;95048.63;5095932;28;20469;-58
2023/08/16 02:10:31;;;;;;;15.70;10.40;;;20.40;99.90;;;20.84;68.31;95047.38;5089068;28;20508;-57
2023/08/16 02:12:58;;;;;;;13.43;11.57;;;20.40;99.90;;;20.80;68.74;95044.25;5091974;28;20473;-58
2023/08/16 02:15:26;;;;;;;17.53;11.77;;;20.40;99.90;;;20.78;68.60;95057.84;5086285;28;20938;-59
2023/08/16 02:17:53;;;;;;;14.83;12.17;;;20.30;99.90;;;20.77;68.87;95050.84;5096873;28;20517;-59
2023/08/16 02:20:22;;;;;;;12.50;11.27;;;20.30;99.90;;;20.78;68.87;95054.34;5091301;28;20453;-57
2023/08/16 02:22:49;;;;;;;12.00;10.90;;;20.30;99.90;;;20.77;68.91;95050.84;5092106;28;20474;-58
2023/08/16 02:25:17;;;;;;;12.63;11.30;;;20.30;99.90;;;20.77;68.88;95052.69;5087971;28;20519;-59
2023/08/16 02:27:44;;;;;;;11.30;10.13;;;20.30;99.90;;;20.76;68.87;95046.53;5096098;28;20501;-58
2023/08/16 02:30:12;;;;;;;12.70;11.37;;;20.30;99.90;;;20.77;69.01;95050.00;5090910;28;20480;-58
2023/08/16 02:32:39;;;;;;;11.63;10.43;;;20.30;99.90;;;20.77;69.00;95040.16;5092575;28;20441;-59
2023/08/16 02:35:07;;;;;;;11.90;10.80;;;20.30;99.90;;;20.76;68.72;95045.72;5088354;28;21196;-58
2023/08/16 02:37:35;;;;;;;13.47;11.23;;;20.30;99.90;;;20.73;68.73;95044.25;5091347;28;20461;-57
2023/08/16 02:40:04;;;;;;;12.70;11.00;;;20.30;99.90;;;20.70;68.85;95041.97;5084086;28;20954;-58
2023/08/16 02:42:31;;;;;;;16.10;11.50;;;20.20;99.90;;;20.66;68.88;95046.06;5090865;28;20481;-57
2023/08/16 02:44:58;;;;;;;13.30;11.90;;;20.20;99.90;;;20.65;69.10;95052.44;5091751;28;20453;-59
2023/08/16 02:47:25;;;;;;;16.97;11.23;;;20.20;99.90;;;20.64;69.12;95049.94;5087993;28;20981;-59
2023/08/16 02:49:53;;;;;;;18.90;11.60;;;20.20;99.90;;;20.64;69.42;95045.41;5085995;28;20454;-58
2023/08/16 02:52:20;;;;;;;17.83;11.17;;;20.20;99.90;;;20.63;69.36;95049.09;5089603;28;20453;-59
2023/08/16 02:54:49;;;;;;;13.43;10.60;;;20.20;99.90;;;20.63;69.18;95051.75;5088290;28;20491;-59
2023/08/16 02:57:16;;;;;;;19.30;10.97;;;20.20;99.90;;;20.62;69.06;95047.47;5088621;28;20480;-58
2023/08/16 02:59:46;;;;;;;16.77;10.20;;;20.20;99.90;;;20.60;69.40;95052.16;5094767;28;20472;-56
2023/08/16 03:02:13;;;;;;;13.90;10.67;;;20.20;99.90;;;20.60;69.54;95049.47;5088773;28;20941;-57
2023/08/16 03:04:40;;;;;;;20.73;11.27;;;20.20;99.90;;;20.57;69.38;95053.41;5089273;28;20480;-57
2023/08/16 03:07:08;;;;;;;17.53;11.60;;;20.10;99.90;;;20.56;69.73;95046.41;5090673;28;20465;-59
2023/08/16 03:09:35;;;;;;;14.30;10.83;;;20.10;99.90;;;20.56;69.86;95050.91;5086366;28;20693;-58
2023/08/16 03:12:05;;;;;;;18.70;11.50;;;20.10;99.90;;;20.53;69.71;95049.47;5095697;28;20470;-58
2023/08/16 03:14:32;;;;;;;20.33;10.77;;;20.10;99.90;;;20.52;69.80;95052.31;5089073;28;20607;-57
2023/08/16 03:16:59;;;;;;;19.87;11.90;;;20.10;99.90;;;20.48;69.58;95048.38;5085970;28;20446;-57
2023/08/16 03:19:27;;;;;;;16.93;12.93;;;20.10;99.90;;;20.46;69.61;95053.13;5092819;28;20502;-60
2023/08/16 03:21:56;;;;;;;18.93;11.27;;;20.00;99.90;;;20.43;69.51;95062.34;5086238;28;20491;-58
2023/08/16 03:24:23;;;;;;;13.83;11.50;;;20.00;99.90;;;20.41;69.85;95065.22;5095771;28;20530;-56
2023/08/16 03:26:50;;;;;;;12.30;10.47;;;20.00;99.90;;;20.40;69.69;95060.06;5089785;28;21029;-58
2023/08/16 03:29:19;;;;;;;16.73;11.27;;;20.00;99.90;;;20.38;69.72;95060.25;5091762;28;20478;-59
2023/08/16 03:31:47;;;;;;;15.17;10.90;;;20.00;99.90;;;20.37;69.77;95055.94;5090748;28;20462;-58
2023/08/16 03:34:15;;;;;;;16.53;10.50;;;20.00;99.90;;;20.37;69.73;95055.94;5088465;28;20498;-59
2023/08/16 03:36:42;;;;;;;16.27;10.37;;;19.90;99.90;;;20.36;69.71;95058.81;5090798;28;20485;-57
2023/08/16 03:39:10;;;;;;;17.40;10.80;;;19.90;99.90;;;20.35;69.59;95060.66;5091134;28;20487;-59
2023/08/16 03:41:38;;;;;;;19.23;9.63;;;19.90;99.90;;;20.34;69.78;95067.03;5097418;28;20460;-59
2023/08/16 03:44:07;;;;;;;20.17;10.90;;;19.90;99.90;;;20.33;69.79;95068.03;5095774;28;20557;-59
2023/08/16 03:46:35;;;;;;;22.73;11.47;;;19.90;99.90;;;20.33;69.97;95065.38;5093938;28;20537;-59
2023/08/16 03:49:03;;;;;;;19.93;13.30;;;19.90;99.90;;;20.31;69.48;95062.06;5093553;28;20482;-60
2023/08/16 03:51:30;;;;;;;14.73;10.77;;;19.90;99.90;;;20.29;69.58;95064.09;5089043;28;20485;-58
2023/08/16 03:53:57;;;;;;;23.10;11.20;;;19.90;99.90;;;20.31;69.73;95069.25;5093534;28;20497;-57
2023/08/16 03:56:25;;;;;;;16.40;11.50;;;19.90;99.90;;;20.31;69.65;95070.09;5093709;28;20824;-62
2023/08/16 03:58:52;;;;;;;11.50;10.23;;;19.90;99.90;;;20.32;69.88;95069.06;5089145;28;20539;-57
2023/08/16 04:01:19;;;;;;;22.47;11.83;;;19.90;99.90;;;20.32;69.78;95063.72;5098069;28;21018;-58
2023/08/16 04:03:48;;;;;;;18.70;10.67;;;19.90;99.90;;;20.34;69.53;95067.03;5089339;28;20504;-56
2023/08/16 04:06:19;;;;;;;16.27;11.60;;;19.90;99.90;;;20.35;69.91;95075.84;5095400;28;20560;-58
2023/08/16 04:08:46;;;;;;;29.37;12.97;;;19.90;99.90;;;20.36;69.58;95075.66;5094302;28;20489;-56
2023/08/16 04:11:14;;;;;;;35.10;13.63;;;19.90;99.90;;;20.36;69.43;95077.53;5093427;28;20458;-59
2023/08/16 04:13:41;;;;;;;21.13;11.83;;;19.90;99.90;;;20.31;69.41;95072.75;5090226;28;20472;-57
2023/08/16 04:16:08;;;;;;;16.63;11.90;;;19.90;99.90;;;20.36;69.51;95077.53;5096737;28;20463;-58
2023/08/16 04:18:35;;;;;;;22.30;12.80;;;19.90;99.90;;;20.38;69.55;95076.28;5093979;28;21149;-59
2023/08/16 04:21:04;;;;;;;14.77;10.53;;;19.90;99.90;;;20.41;69.72;95081.22;5091389;28;21226;-58
2023/08/16 04:23:32;;;;;;;18.07;11.10;;;20.00;99.90;;;20.45;69.58;95078.16;5095565;28;20476;-58
2023/08/16 04:25:59;;;;;;;23.47;11.73;;;20.00;99.90;;;20.50;69.66;95078.44;5093355;28;20744;-57
2023/08/16 04:28:26;;;;;;;12.80;10.80;;;20.10;99.90;;;20.56;69.57;95074.97;5093109;28;20497;-58
2023/08/16 04:30:53;;;;;;;16.57;11.60;;;20.10;99.90;;;20.61;69.59;95077.88;5094559;28;20453;-59
2023/08/16 04:33:21;;;;;;;21.70;11.87;;;20.10;99.90;;;20.66;69.60;95080.81;5089089;28;20905;-58
2023/08/16 04:35:48;;;;;;;21.33;11.97;;;20.20;99.90;;;20.71;69.71;95081.06;5093262;28;20501;-59
2023/08/16 04:38:17;;;;;;;27.67;11.77;;;20.20;99.90;;;20.76;69.74;95078.59;5093166;28;20502;-58
2023/08/16 04:40:44;;;;;;;30.13;12.63;;;20.30;99.90;;;20.82;69.64;95082.34;5094226;28;20502;-58
2023/08/16 04:43:11;;;;;;;20.30;11.40;;;20.40;99.90;;;20.88;69.46;95084.22;5087936;28;20481;-58
2023/08/16 04:45:39;;;;;;;13.10;10.83;;;20.40;99.90;;;20.93;68.93;95079.09;5091563;28;20511;-59
2023/08/16 04:48:06;;;;;;;20.17;12.27;;;20.50;99.90;;;20.98;68.72;95077.69;5095399;28;20477;-59
2023/08/16 04:50:34;;;;;;;15.50;11.40;;;20.50;99.90;;;21.02;68.46;95076.25;5095921;28;20453;-57
2023/08/16 04:53:02;;;;;;;14.43;11.77;;;20.50;99.90;;;21.06;68.29;95074.81;5093934;28;20482;-57
2023/08/16 04:55:31;;;;;;;18.40;10.40;;;20.60;99.90;;;21.11;68.08;95080.38;5097131;28;20497;-58
2023/08/16 04:57:58;;;;;;;14.97;11.07;;;20.60;99.90;;;21.13;68.09;95079.19;5093774;28;21018;-61
2023/08/16 05:00:25;;;;;;;19.27;10.53;;;20.70;99.90;;;21.20;67.97;95086.41;5095608;28;20457;-58
2023/08/16 05:02:53;;;;;;;13.53;11.30;;;20.70;99.90;;;21.26;67.82;95072.22;5090106;28;20902;-57
2023/08/16 05:05:21;;;;;;;25.77;11.50;;;20.80;99.90;;;21.33;67.87;95078.41;5085839;28;20457;-58
2023/08/16 05:07:48;;;;;;;16.43;10.67;;;20.80;99.90;;;21.44;67.88;95080.50;5093701;28;20465;-56
2023/08/16 05:10:15;;;;;;;15.10;11.00;;;20.90;99.90;;;21.58;67.64;95083.22;5090947;28;20461;-58
2023/08/16 05:12:44;;;;;;;15.93;10.17;;;21.00;99.90;;;21.69;67.24;95084.47;5088669;28;20853;-58
2023/08/16 05:15:11;;;;;;;15.37;10.27;;;21.20;99.90;;;21.79;66.49;95076.88;5092125;28;20497;-58
2023/08/16 05:17:39;;;;;;;19.57;10.33;;;21.30;99.90;;;21.92;66.42;95090.28;5093603;28;20477;-57
2023/08/16 05:20:08;;;;;;;16.60;10.60;;;21.40;99.90;;;22.03;66.37;95087.00;5088814;28;20914;-57
2023/08/16 05:22:36;;;;;;;13.60;10.70;;;21.50;99.90;;;22.14;65.98;95084.72;5092461;28;20457;-58
2023/08/16 05:25:03;;;;;;;19.20;11.70;;;21.60;99.90;;;22.25;65.82;95088.63;5093438;28;20777;-58
2023/08/16 05:27:31;;;;;;;15.17;10.33;;;21.70;99.90;;;22.32;65.46;95081.44;5095154;28;20454;-56
2023/08/16 05:30:00;;;;;;;20.03;11.60;;;21.80;99.90;;;22.37;65.71;95081.66;5092178;28;20946;-58
2023/08/16 05:32:27;;;;;;;15.77;9.60;;;21.90;99.90;;;22.41;65.23;95082.88;5091734;28;20970;-58
2023/08/16 05:34:54;;;;;;;18.63;11.27;;;21.90;99.90;;;22.51;65.52;95087.78;5091655;28;20482;-59
2023/08/16 05:37:22;;;;;;;16.20;10.83;;;22.00;99.90;;;22.62;66.16;95080.97;5091069;28;20841;-57
2023/08/16 05:39:49;;;;;;;19.00;11.13;;;22.10;99.90;;;22.72;65.89;95068.78;5088834;28;20518;-58
2023/08/16 05:42:16;;;;;;;30.47;12.80;;;22.20;99.90;;;22.87;66.20;95075.75;5093054;28;20556;-60
2023/08/16 05:44:44;;;;;;;18.10;10.73;;;22.30;99.90;;;23.07;66.47;95073.00;5092022;28;20478;-58
2023/08/16 05:47:12;;;;;;;18.47;11.10;;;22.50;99.90;;;23.31;65.81;95070.66;5094862;28;20989;-65
2023/08/16 05:49:39;;;;;;;35.50;14.00;;;22.70;99.90;;;23.51;64.87;95071.34;5089327;28;20469;-57
2023/08/16 05:52:07;;;;;;;26.70;12.20;;;22.90;99.90;;;23.66;64.73;95081.00;5091742;28;20446;-59
2023/08/16 05:54:34;;;;;;;31.00;13.90;;;23.10;99.90;;;23.78;63.94;95076.56;5091629;28;20470;-58
2023/08/16 05:57:02;;;;;;;27.40;11.80;;;23.20;99.90;;;23.99;63.92;95075.41;5096164;28;20453;-59
2023/08/16 05:59:30;;;;;;;33.63;12.50;;;23.40;99.90;;;24.20;63.06;95081.44;5093660;28;20992;-58
2023/08/16 06:01:57;;;;;;;18.07;9.17;;;23.60;99.90;;;24.37;62.21;95076.31;5089276;28;20490;-58
2023/08/16 06:04:26;;;;;;;21.33;10.63;;;23.70;99.90;;;24.55;61.66;95081.72;5089779;28;20478;-59
2023/08/16 06:06:53;;;;;;;19.07;13.37;;;23.90;99.90;;;24.70;61.27;95084.09;5093156;28;20453;-60
2023/08/16 06:09:21;;;;;;;16.47;9.10;;;24.00;99.90;;;24.78;60.81;95074.94;5095574;28;20566;-57
2023/08/16 06:11:48;;;;;;;21.23;10.60;;;24.20;99.80;;;24.90;60.51;95083.91;5087756;28;20473;-60
2023/08/16 06:14:15;;;;;;;16.13;9.93;;;24.30;99.50;;;24.97;59.72;95079.28;5092028;28;20554;-59
2023/08/16 06:16:42;;;;;;;22.97;8.33;;;24.40;98.90;;;25.02;59.93;95079.41;5090911;28;20547;-59
2023/08/16 06:19:10;;;;;;;12.70;8.57;;;24.40;98.70;;;25.07;59.80;95081.44;5093021;28;20521;-59
2023/08/16 06:21:39;;;;;;;17.30;10.83;;;24.50;98.40;;;25.12;59.27;95083.44;5091017;28;20461;-58
2023/08/16 06:24:08;;;;;;;14.23;10.00;;;24.50;98.20;;;25.16;58.75;95082.78;5095047;28;20949;-59
2023/08/16 06:26:35;;;;;;;9.73;8.40;;;24.60;98.00;;;25.23;59.17;95080.78;5095010;28;20456;-60
2023/08/16 06:29:02;;;;;;;20.93;11.37;;;24.60;97.90;;;25.28;58.75;95077.41;5098830;28;20537;-60
2023/08/16 06:31:30;;;;;;;11.00;9.13;;;24.70;97.70;;;25.33;59.05;95072.22;5089940;28;20537;-60
2023/08/16 06:33:57;;;;;;;21.97;11.27;;;24.80;97.70;;;25.40;58.36;95072.94;5091973;28;20711;-60
2023/08/16 06:36:24;;;;;;;16.73;8.97;;;24.80;97.40;;;25.45;58.28;95072.25;5091189;28;21043;-58
2023/08/16 06:38:53;;;;;;;10.83;8.87;;;24.90;97.40;;;25.52;58.14;95074.88;5091535;28;20487;-58
2023/08/16 06:41:20;;;;;;;16.30;10.43;;;24.90;97.30;;;25.63;57.84;95071.41;5089981;28;21024;-59
2023/08/16 06:43:47;;;;;;;14.53;9.67;;;25.10;97.60;;;25.80;57.94;95070.75;5090844;28;20542;-59
2023/08/16 06:46:15;;;;;;;18.67;9.33;;;25.20;97.40;;;25.96;57.22;95070.06;5091828;28;20472;-60
2023/08/16 06:48:42;;;;;;;11.83;8.80;;;25.40;96.70;;;26.12;57.34;95068.63;5088141;28;20915;-59
2023/08/16 06:51:09;;;;;;;9.40;8.50;;;25.50;96.50;;;26.30;56.70;95067.69;5087001;28;20456;-59
2023/08/16 06:53:39;;;;;;;15.53;9.33;;;25.70;96.00;;;26.50;56.17;95064.66;5088726;28;20550;-59
2023/08/16 06:56:07;;;;;;;14.87;9.93;;;25.80;95.70;;;26.70;56.01;95063.50;5093203;28;20603;-59
2023/08/16 06:58:35;;;;;;;15.57;8.90;;;26.00;95.20;;;26.88;55.33;95066.06;5091339;28;21071;-59
2023/08/16 07:01:02;;;;;;;13.67;8.83;;;26.20;94.80;;;27.09;55.01;95055.69;5087262;28;20446;-58
2023/08/16 07:03:29;;;;;;;16.30;8.13;;;26.40;94.40;;;27.35;54.33;95054.34;5091530;28;20465;-60
2023/08/16 07:05:56;;;;;;;9.90;7.93;;;26.60;94.10;;;27.55;54.06;95048.50;5089521;28;20452;-59
2023/08/16 07:08:24;;;;;;;11.43;8.20;;;26.80;93.30;;;27.74;53.28;95051.81;5089358;28;20485;-58
2023/08/16 07:10:51;;;;;;;11.10;7.60;;;27.00;92.80;;;27.95;52.59;95046.75;5088088;28;20822;-61
2023/08/16 07:13:19;;;;;;;15.53;8.50;;;27.20;92.10;;;28.12;52.12;95053.03;5095360;28;21028;-58
2023/08/16 07:15:47;;;;;;;10.97;8.10;;;27.40;91.50;;;28.32;51.87;95046.28;5093500;28;20484;-59
2023/08/16 07:18:14;;;;;;;10.80;7.47;;;27.60;91.60;;;28.59;51.41;95049.97;5092337;28;20576;-59
2023/08/16 07:20:41;;;;;;;13.30;7.70;;;27.80;91.10;;;28.89;51.59;95050.66;5091789;28;20501;-60
2023/08/16 07:23:08;;;;;;;14.73;8.90;;;28.10;90.40;;;29.06;51.10;95043.28;5092394;28;20484;-59
2023/08/16 07:25:36;;;;;;;12.17;7.80;;;28.40;89.70;;;29.29;50.08;95053.06;5091874;28;20518;-61
2023/08/16 07:28:04;;;;;;;14.30;7.70;;;28.60;88.70;;;29.56;50.23;95046.88;5103131;28;20472;-60
2023/08/16 07:30:33;;;;;;;8.23;7.43;;;28.80;88.10;;;29.81;49.58;95042.81;5096292;28;20611;-60
2023/08/16 07:33:00;;;;;;;15.53;8.50;;;29.10;86.50;;;29.98;48.97;95043.53;5092487;28;20219;-58
2023/08/16 07:35:27;;;;;;;10.50;7.50;;;29.20;85.20;;;30.11;48.52;95044.16;5099425;28;20678;-58
2023/08/16 07:37:55;;;;;;;10.80;7.57;;;29.40;83.40;;;30.14;47.65;95044.44;5097042;28;20208;-61
2023/08/16 07:40:22;;;;;;;13.70;8.00;;;29.50;82.20;;;30.25;47.67;95050.78;5092049;28;20297;-59
2023/08/16 07:42:50;;;;;;;11.40;7.50;;;29.60;82.30;;;30.44;47.67;95053.13;5089525;28;20224;-61
2023/08/16 07:45:17;;;;;;;18.57;8.03;;;29.70;81.50;;;30.68;47.99;95042.69;5093803;28;20228;-59
2023/08/16 07:47:46;;;;;;;9.17;7.60;;;29.90;81.20;;;30.98;47.04;95042.06;5094278;28;20667;-60
2023/08/16 07:50:13;;;;;;;7.60;6.83;;;30.20;80.50;;;31.28;46.18;95041.38;5094721;28;20523;-61
2023/08/16 07:52:40;;;;;;;17.25;7.05;;;30.50;79.00;;;31.44;46.30;95039.53;5093275;28;20203;-58
2023/08/16 07:55:09;;;;;;;9.60;8.60;;;30.70;77.80;;;31.64;45.48;95037.97;5094317;28;20587;-60
2023/08/16 07:57:36;;;;;;;9.30;7.60;;;30.90;77.30;;;31.88;44.95;95038.28;5096011;28;20262;-60
2023/08/16 08:00:06;;;;;;;8.15;6.85;;;31.10;75.80;;;31.90;44.46;95035.28;5093283;28;20778;-58
2023/08/16 08:02:33;;;;;;;13.85;7.55;;;31.20;74.00;;;31.86;44.51;95035.00;5099047;28;20204;-59
2023/08/16 08:05:05;;;;;;;9.85;6.72;;;31.20;73.50;;;31.91;44.32;95034.22;5091723;28;20617;-61
2023/08/16 08:07:32;;;;;;;14.85;7.55;;;31.20;73.00;;;32.11;44.31;95036.16;5093454;28;20198;-59
2023/08/16 08:09:59;;;;;;;11.13;6.97;;;31.30;73.20;;;32.39;43.92;95042.94;5094318;28;20206;-58
2023/08/16 08:12:26;;;;;;;12.52;6.20;;;31.60;72.20;;;32.73;43.65;95039.66;5092003;28;20306;-58
2023/08/16 08:14:56;;;;;;;15.60;6.60;;;31.90;72.00;;;33.11;42.82;95039.25;5096435;28;20203;-60
2023/08/16 08:17:23;;;;;;;9.98;6.63;;;32.20;71.00;;;33.51;42.31;95032.84;5092933;28;20230;-62
2023/08/16 08:19:50;;;;;;;8.07;7.07;;;32.70;70.50;;;33.91;41.91;95036.47;5094021;28;20200;-59
2023/08/16 08:22:19;;;;;;;7.95;7.15;;;33.10;69.70;;;34.28;40.88;95043.28;5089488;28;20741;-59
2023/08/16 08:24:46;;;;;;;16.20;7.18;;;33.50;68.00;;;34.61;40.80;95042.72;5096979;28;20251;-60
2023/08/16 08:27:13;;;;;;;8.00;7.18;;;33.80;66.90;;;34.77;39.84;95030.56;5094203;28;20259;-58
2023/08/16 08:29:41;;;;;;;12.73;7.43;;;34.00;64.10;;;34.76;39.72;95036.31;5100679;28;20659;-59
2023/08/16 08:32:08;;;;;;;9.73;7.25;;;34.10;64.30;;;34.67;39.80;95038.81;5087209;28;20329;-59
2023/08/16 08:34:36;;;;;;;13.73;6.38;;;34.00;63.20;;;34.45;38.75;95036.59;5087617;28;20378;-62
2023/08/16 08:37:03;;;;;;;8.43;7.20;;;33.80;62.30;;;34.26;38.94;95034.56;5087339;28;20223;-60
2023/08/16 08:39:33;;;;;;;7.75;6.40;;;33.70;62.50;;;34.29;39.50;95034.00;5084736;28;20223;-58
2023/08/16 08:42:00;;;;;;;13.57;7.47;;;33.70;63.10;;;34.48;39.11;95041.47;5090013;28;20236;-59
2023/08/16 08:44:27;;;;;;;9.68;7.25;;;33.70;62.30;;;34.65;39.58;95030.91;5084928;28;20220;-60
2023/08/16 08:46:55;;;;;;;11.77;7.60;;;33.90;62.50;;;34.84;40.01;95022.00;5090322;28;20199;-60
2023/08/16 08:49:22;;;;;;;9.05;6.72;;;34.10;62.20;;;35.12;38.72;95027.72;5091414;28;20281;-58
2023/08/16 08:51:50;;;;;;;19.10;7.35;;;34.30;62.30;;;35.47;38.08;95029.22;5088081;28;20235;-60
2023/08/16 08:54:17;;;;;;;7.05;6.03;;;34.60;60.20;;;35.57;38.06;95021.97;5092048;28;20227;-59
2023/08/16 08:56:45;;;;;;;10.27;6.25;;;34.80;59.40;;;35.55;38.34;95019.53;5087052;28;20238;-61
2023/08/16 08:59:13;;;;;;;7.25;6.55;;;34.90;59.40;;;35.63;37.25;95021.59;5087485;28;20231;-58
2023/08/16 09:01:40;;;;;;;9.90;6.68;;;34.90;59.40;;;35.73;37.85;95026.94;5086626;28;20241;-61
2023/08/16 09:04:08;;;;;;;14.10;6.70;;;35.00;59.50;;;35.92;37.25;95023.41;5087365;28;20288;-61
2023/08/16 09:06:36;;;;;;;17.48;6.68;;;35.10;58.80;;;36.18;36.97;95021.06;5087032;28;20199;-59
2023/08/16 09:09:04;;;;;;;7.18;6.57;;;35.30;58.90;;;36.47;36.44;95022.00;5087188;28;20226;-59
2023/08/16 09:11:32;;;;;;;8.82;7.85;;;35.60;57.90;;;36.67;35.88;95027.13;5094390;28;20278;-61
2023/08/16 09:14:02;;;;;;;14.85;7.82;;;35.80;56.60;;;36.75;35.64;95031.13;5087100;28;20223;-59
2023/08/16 09:16:29;;;;;;;9.98;7.10;;;36.00;56.20;;;36.70;36.10;95026.53;5086672;28;20333;-61
2023/08/16 09:18:57;;;;;;;7.88;7.10;;;36.00;56.20;;;36.63;35.99;95019.81;5088630;28;20299;-60
2023/08/16 09:21:28;;;;;;;11.50;7.93;;;35.90;56.10;;;36.61;35.99;95020.09;5092240;28;20198;-59
2023/08/16 09:23:59;;;;;;;13.02;7.00;;;35.90;55.90;;;36.60;35.63;95026.69;5086910;28;20207;-62
2023/08/16 09:26:28;;;;;;;12.70;7.35;;;35.90;55.60;;;36.44;35.98;95028.91;5092493;28;20640;-60
2023/08/16 09:29:00;;;;;;;9.40;7.38;;;35.80;55.60;;;36.26;35.39;95022.34;5093410;28;20223;-60
2023/08/16 09:31:29;;;;;;;8.30;7.43;;;35.60;56.20;;;36.00;36.20;95017.25;5089758;28;20580;-59
2023/08/16 09:33:58;;;;;;;9.90;7.22;;;35.40;55.50;;;35.80;36.27;95014.81;5095234;28;20265;-60
2023/08/16 09:36:29;;;;;;;9.35;7.03;;;35.10;55.70;;;35.68;35.92;95018.81;5098295;28;20231;-60
2023/08/16 09:39:02;;;;;;;14.90;6.88;;;35.00;56.00;;;35.63;36.33;95009.84;5101729;28;20210;-60
2023/08/16 09:41:30;;;;;;;10.60;6.57;;;34.90;56.10;;;35.48;37.00;95014.44;5088542;28;20218;-61
2023/08/16 09:44:05;;;;;;;9.50;7.07;;;34.80;56.20;;;35.29;36.09;95008.94;5090732;28;20375;-62
2023/08/16 09:46:33;;;;;;;10.48;6.80;;;34.60;56.30;;;35.11;36.82;95013.22;5086384;28;20678;-60
2023/08/16 09:49:06;;;;;;;13.00;7.40;;;34.50;56.80;;;35.06;36.77;95009.75;5086180;28;20243;-61
2023/08/16 09:51:34;;;;;;;7.28;6.60;;;34.40;56.60;;;35.13;37.65;95010.22;5095682;28;20279;-59
2023/08/16 09:54:03;;;;;;;8.07;6.57;;;34.40;57.20;;;35.26;37.28;95015.00;5085983;28;20230;-61
2023/08/16 09:56:33;;;;;;;8.52;7.63;;;34.50;57.00;;;35.25;37.09;95016.06;5086279;28;20243;-59
2023/08/16 09:59:01;;;;;;;8.27;7.45;;;34.50;56.70;;;35.16;36.20;95015.91;5088448;28;20219;-61
2023/08/16 10:01:30;;;;;;;7.68;6.90;;;34.50;55.80;;;35.10;36.12;95010.78;5085108;28;20582;-61
2023/08/16 10:03:57;;;;;;;9.23;7.40;;;34.40;55.90;;;35.06;36.43;95012.47;5092866;28;20226;-60
2023/08/16 10:06:25;;;;;;;8.68;7.10;;;34.30;55.80;;;35.04;35.93;95011.97;5093032;28;20195;-59
2023/08/16 10:08:53;;;;;;;10.18;6.78;;;34.30;55.70;;;35.04;36.84;95010.03;5094006;28;20291;-60
2023/08/16 10:11:20;;;;;;;16.25;7.18;;;34.20;56.20;;;35.02;36.10;95012.25;5088473;28;20195;-61
2023/08/16 10:13:47;;;;;;;14.88;7.05;;;34.20;55.90;;;35.08;36.67;95015.75;5090287;28;20309;-61